Time;durP1;ratioP1;P1;durP2;ratioP2;P2;SDS_P1;SDS_P2;PMS_P1;PMS_P2;Temp;Humidity;BMP_temperature;BMP_pressure;BME280_temperature;BME280_humidity;BME280_pressure;Samples;Min_cycle;Max_cycle;Signal;HPM_P1;HPM_P2
2021/04/19 00:02:00;;;;;;;10.67;8.93;;;;;;;8.15;100.00;98486.16;5074830;28;20742;-81
2021/04/19 00:04:27;;;;;;;12.13;9.97;;;;;;;8.20;100.00;98491.97;5074921;28;20244;-81
2021/04/19 00:06:54;;;;;;;13.40;10.40;;;;;;;8.21;100.00;98485.81;5074284;28;20201;-80
2021/04/19 00:09:21;;;;;;;15.40;11.47;;;;;;;8.16;100.00;98472.13;5072182;28;20688;-81
2021/04/19 00:11:48;;;;;;;16.60;11.80;;;;;;;8.19;100.00;98461.47;5074616;28;20280;-80
2021/04/19 00:14:16;;;;;;;14.00;12.27;;;;;;;8.34;100.00;98439.59;5074772;28;20204;-81
2021/04/19 00:16:42;;;;;;;15.97;11.63;;;;;;;7.89;100.00;98400.41;5074389;28;20193;-80
2021/04/19 00:19:09;;;;;;;17.53;11.80;;;;;;;7.93;100.00;98362.63;5074380;28;20224;-79
2021/04/19 00:21:36;;;;;;;16.53;12.27;;;;;;;8.01;100.00;98311.50;5074991;28;20287;-81
2021/04/19 00:24:04;;;;;;;21.07;13.40;;;;;;;8.02;100.00;98267.84;5074574;28;20288;-81
2021/04/19 00:26:30;;;;;;;17.77;12.90;;;;;;;8.07;100.00;98221.25;5074589;28;20583;-81
2021/04/19 00:28:57;;;;;;;18.43;13.47;;;;;;;8.07;100.00;98171.47;5074403;28;20569;-80
2021/04/19 00:31:25;;;;;;;17.50;12.83;;;;;;;8.09;100.00;98143.44;5074470;28;20745;-80
2021/04/19 00:33:52;;;;;;;15.23;12.63;;;;;;;7.98;100.00;98125.78;5074273;28;20203;-81
2021/04/19 00:36:19;;;;;;;19.87;14.10;;;;;;;7.83;100.00;98096.19;5074358;28;20218;-80
2021/04/19 00:38:46;;;;;;;15.70;12.53;;;;;;;7.83;100.00;98070.00;5074073;28;20225;-80
2021/04/19 00:41:13;;;;;;;17.27;12.70;;;;;;;7.93;100.00;98032.75;5074523;28;20201;-80
2021/04/19 00:43:40;;;;;;;20.10;12.57;;;;;;;7.88;100.00;97995.56;5074247;28;20288;-80
2021/04/19 00:46:07;;;;;;;13.77;12.17;;;;;;;7.86;100.00;97970.31;5074087;28;20197;-80
2021/04/19 00:48:36;;;;;;;16.57;12.20;;;;;;;8.01;99.95;97942.28;5073812;28;20288;-80
2021/04/19 00:51:04;;;;;;;17.30;12.80;;;;;;;8.00;99.59;97898.72;5074161;28;20738;-81
2021/04/19 00:53:31;;;;;;;12.27;10.23;;;;;;;8.10;99.13;97891.06;5073898;28;20199;-81
2021/04/19 00:55:58;;;;;;;16.50;11.50;;;;;;;8.05;99.04;97873.06;5073586;28;20197;-80
2021/04/19 00:58:27;;;;;;;15.57;12.33;;;;;;;8.11;98.75;97845.63;5073491;28;20221;-80
2021/04/19 01:00:55;;;;;;;13.23;9.93;;;;;;;8.18;98.53;97820.69;5074115;28;20588;-81
2021/04/19 01:03:23;;;;;;;12.50;10.20;;;;;;;8.24;98.79;97819.41;5073626;28;20201;-80
2021/04/19 01:05:51;;;;;;;14.73;11.33;;;;;;;8.06;99.63;97826.75;5074221;28;20284;-81
2021/04/19 01:08:18;;;;;;;13.80;11.53;;;;;;;8.05;99.63;97830.31;5073599;28;20197;-81
2021/04/19 01:10:45;;;;;;;14.70;11.60;;;;;;;8.25;99.28;97832.44;5073770;28;20224;-80
2021/04/19 01:13:12;;;;;;;15.97;13.27;;;;;;;8.34;100.00;97834.38;5073615;28;20204;-81
2021/04/19 01:15:40;;;;;;;15.00;11.13;;;;;;;8.31;100.00;97842.50;5073471;28;20290;-81
2021/04/19 01:18:07;;;;;;;15.97;11.37;;;;;;;8.24;100.00;97861.31;5073582;28;20248;-81
2021/04/19 01:20:39;;;;;;;14.63;10.80;;;;;;;8.11;100.00;97856.09;5073114;28;20271;-81
2021/04/19 01:23:06;;;;;;;15.30;11.90;;;;;;;7.84;100.00;97835.25;5073359;28;20663;-81
2021/04/19 01:25:33;;;;;;;15.90;12.83;;;;;;;7.67;100.00;97811.97;5073669;28;20196;-80
2021/04/19 01:28:00;;;;;;;16.80;11.80;;;;;;;7.61;99.35;97784.44;5073283;28;20240;-81
2021/04/19 01:30:32;;;;;;;18.60;12.53;;;;;;;7.50;97.94;97745.06;5073374;28;20193;-80
2021/04/19 01:32:59;;;;;;;15.27;11.07;;;;;;;7.66;96.56;97706.47;5073074;28;20225;-80
2021/04/19 01:35:26;;;;;;;14.97;11.77;;;;;;;7.68;95.85;97699.34;5073269;28;20197;-81
2021/04/19 01:37:54;;;;;;;16.17;12.50;;;;;;;7.89;94.86;97696.19;5073290;28;20231;-80
2021/04/19 01:40:21;;;;;;;14.93;11.17;;;;;;;7.90;94.63;97696.09;5073186;28;20236;-80
2021/04/19 01:42:48;;;;;;;16.03;12.27;;;;;;;7.99;94.57;97705.06;5072840;28;20189;-80
2021/04/19 01:45:16;;;;;;;17.37;11.87;;;;;;;7.89;95.06;97714.50;5073002;28;20284;-81
2021/04/19 01:47:44;;;;;;;13.43;10.20;;;;;;;7.88;95.22;97716.28;5072806;28;20287;-80
2021/04/19 01:50:13;;;;;;;15.80;10.93;;;;;;;7.90;95.20;97721.41;5072750;28;20193;-81
2021/04/19 01:52:41;;;;;;;16.60;11.93;;;;;;;7.98;95.13;97719.09;5072636;28;20197;-80
2021/04/19 01:55:11;;;;;;;13.53;11.47;;;;;;;7.97;95.15;97713.03;5072875;28;20201;-81
2021/04/19 01:57:41;;;;;;;11.90;9.60;;;;;;;8.06;95.13;97729.88;5072967;28;20186;-80
2021/04/19 02:00:11;;;;;;;16.20;13.17;;;;;;;8.00;95.36;97732.91;5072684;28;20272;-80
2021/04/19 02:02:48;;;;;;;38.97;24.57;;;;;;;8.06;95.55;97737.72;5072503;28;20197;-80
2021/04/19 02:05:24;;;;;;;30.77;21.03;;;;;;;8.01;95.89;97740.69;5072637;28;20180;-80
2021/04/19 02:07:58;;;;;;;13.37;11.07;;;;;;;7.96;96.15;97741.94;5071587;28;20207;-80
2021/04/19 02:10:34;;;;;;;9.43;8.27;;;;;;;7.93;96.35;97737.75;5072506;28;20227;-80
2021/04/19 02:13:06;;;;;;;12.03;9.23;;;;;;;7.93;96.54;97744.75;5072608;28;20184;-81
2021/04/19 02:15:43;;;;;;;9.90;8.63;;;;;;;7.93;96.65;97743.00;5072542;28;20197;-80
2021/04/19 02:18:17;;;;;;;10.83;8.73;;;;;;;7.93;96.86;97752.59;5072128;28;20240;-80
2021/04/19 02:20:46;;;;;;;9.53;8.50;;;;;;;7.98;96.92;97761.00;5072208;28;20279;-80
2021/04/19 02:23:21;;;;;;;16.67;9.20;;;;;;;8.06;97.06;97756.88;5072047;28;20193;-80
2021/04/19 02:25:53;;;;;;;11.10;9.30;;;;;;;8.07;97.46;97762.97;5072437;28;20187;-80
2021/04/19 02:28:26;;;;;;;13.67;9.97;;;;;;;8.05;97.69;97762.25;5071966;28;20184;-80
2021/04/19 02:30:57;;;;;;;13.13;10.23;;;;;;;8.22;97.63;97766.31;5072112;28;20264;-80
2021/04/19 02:33:27;;;;;;;14.50;10.80;;;;;;;8.13;97.88;97765.16;5072317;28;20194;-80
2021/04/19 02:35:53;;;;;;;21.17;12.93;;;;;;;8.06;97.65;97769.97;5071827;28;20293;-81
2021/04/19 02:38:25;;;;;;;15.70;14.03;;;;;;;8.06;97.50;97763.91;5072233;28;20307;-81
2021/04/19 02:40:54;;;;;;;20.23;14.70;;;;;;;8.07;97.20;97762.97;5072145;28;20661;-80
2021/04/19 02:43:23;;;;;;;18.20;13.80;;;;;;;8.05;96.97;97744.75;5071937;28;20236;-80
2021/04/19 02:45:52;;;;;;;24.73;21.70;;;;;;;8.03;96.69;97732.69;5071994;28;20727;-80
2021/04/19 02:48:23;;;;;;;22.07;17.93;;;;;;;8.00;96.45;97720.69;5072052;28;20666;-80
2021/04/19 02:50:51;;;;;;;15.03;12.57;;;;;;;7.98;96.10;97713.88;5072172;28;20200;-80
2021/04/19 02:53:20;;;;;;;11.97;10.73;;;;;;;7.97;95.77;97702.56;5071846;28;20193;-81
2021/04/19 02:55:47;;;;;;;15.20;9.90;;;;;;;7.97;95.57;97688.66;5071709;28;20197;-81
2021/04/19 02:58:23;;;;;;;11.53;9.63;;;;;;;7.93;95.55;97692.41;5071706;28;20229;-81
2021/04/19 03:00:50;;;;;;;13.80;9.30;;;;;;;7.95;95.54;97688.72;5072137;28;20709;-81
2021/04/19 03:03:21;;;;;;;10.30;9.30;;;;;;;7.92;95.94;97701.19;5071705;28;20193;-80
2021/04/19 03:05:49;;;;;;;13.40;10.23;;;;;;;7.93;96.26;97708.97;5053461;28;20288;-79
2021/04/19 03:08:18;;;;;;;19.40;13.00;;;;;;;7.72;96.51;97708.63;5070858;28;20228;-80
2021/04/19 03:10:51;;;;;;;15.33;12.23;;;;;;;8.02;96.07;97716.16;5071526;28;20197;-80
2021/04/19 03:13:21;;;;;;;13.23;10.57;;;;;;;7.83;97.06;97714.00;5071086;28;20192;-80
2021/04/19 03:15:52;;;;;;;18.50;12.60;;;;;;;7.94;96.98;97721.09;5077477;28;20215;-79
2021/04/19 03:18:21;;;;;;;18.93;13.00;;;;;;;7.92;96.66;97719.53;5081868;28;20197;-81
2021/04/19 03:21:04;;;;;;;14.53;11.80;;;;;;;7.91;96.23;97710.84;5073360;28;20717;-81
2021/04/19 03:23:31;;;;;;;21.00;18.00;;;;;;;8.01;95.95;97696.16;5074513;28;20193;-80
2021/04/19 03:25:59;;;;;;;19.90;15.03;;;;;;;8.02;96.01;97689.97;5074757;28;20204;-80
2021/04/19 03:28:29;;;;;;;22.93;15.60;;;;;;;7.91;96.24;97687.28;5074503;28;20284;-80
2021/04/19 03:30:55;;;;;;;23.87;16.50;;;;;;;7.84;96.26;97688.66;5074714;28;20810;-80
2021/04/19 03:33:25;;;;;;;20.13;17.13;;;;;;;7.81;96.13;97679.22;5073950;28;20753;-81
2021/04/19 03:35:53;;;;;;;16.23;12.73;;;;;;;7.85;96.00;97677.22;5074560;28;20691;-80
2021/04/19 03:38:21;;;;;;;13.30;10.27;;;;;;;7.75;96.60;97665.72;5074172;28;20775;-80
2021/04/19 03:40:51;;;;;;;10.00;9.00;;;;;;;7.80;97.02;97672.31;5074245;28;20670;-80
2021/04/19 03:43:20;;;;;;;10.83;8.60;;;;;;;7.77;97.88;97676.94;5074282;28;20197;-80
2021/04/19 03:45:51;;;;;;;8.77;7.80;;;;;;;7.74;98.90;97685.84;5073882;28;20209;-80
2021/04/19 03:48:21;;;;;;;11.70;8.87;;;;;;;7.87;99.88;97709.38;5074080;28;20185;-81
2021/04/19 03:50:52;;;;;;;13.90;8.70;;;;;;;7.72;100.00;97719.09;5074512;28;20193;-80
2021/04/19 03:53:21;;;;;;;10.97;9.53;;;;;;;7.79;100.00;97724.75;5074284;28;20792;-80
2021/04/19 03:55:49;;;;;;;10.03;8.03;;;;;;;7.81;100.00;97739.44;5074159;28;20276;-80
2021/04/19 03:58:19;;;;;;;9.63;8.43;;;;;;;7.90;100.00;97744.97;5073321;28;20260;-80
2021/04/19 04:00:48;;;;;;;11.00;9.23;;;;;;;7.69;100.00;97749.88;5074216;28;20629;-81
2021/04/19 04:03:18;;;;;;;10.20;8.00;;;;;;;7.72;100.00;97760.97;5073544;28;20346;-80
2021/04/19 04:05:47;;;;;;;14.03;9.73;;;;;;;7.96;100.00;97766.31;5074012;28;20201;-80
2021/04/19 04:08:15;;;;;;;13.10;11.43;;;;;;;7.83;100.00;97760.28;5073677;28;20237;-80
2021/04/19 04:10:43;;;;;;;15.27;12.57;;;;;;;7.79;100.00;97762.28;5073238;28;20775;-80
2021/04/19 04:13:10;;;;;;;12.80;10.10;;;;;;;7.81;100.00;97783.09;5073756;28;20204;-79
2021/04/19 04:15:48;;;;;;;10.87;8.90;;;;;;;7.75;100.00;97776.47;5074053;28;20284;-80
2021/04/19 04:18:15;;;;;;;13.73;11.93;;;;;;;7.80;100.00;97779.63;5073793;28;20655;-80
2021/04/19 04:20:42;;;;;;;18.33;13.87;;;;;;;7.73;100.00;97778.38;5073164;28;20236;-80
2021/04/19 04:23:09;;;;;;;16.53;14.20;;;;;;;7.81;100.00;97781.31;5073442;28;20244;-80
2021/04/19 04:25:37;;;;;;;19.00;12.27;;;;;;;7.70;100.00;97770.75;5073228;28;20208;-80
2021/04/19 04:28:05;;;;;;;20.03;13.77;;;;;;;7.59;100.00;97757.56;5073354;28;20288;-80
2021/04/19 04:30:35;;;;;;;26.90;19.67;;;;;;;7.53;100.00;97743.09;5073030;28;20288;-80
2021/04/19 04:33:02;;;;;;;18.77;14.53;;;;;;;7.52;100.00;97723.09;5072639;28;20270;-80
2021/04/19 04:35:31;;;;;;;21.47;15.67;;;;;;;7.59;100.00;97707.84;5073429;28;20977;-79
2021/04/19 04:37:58;;;;;;;19.57;15.50;;;;;;;7.65;100.00;97694.31;5072900;28;20200;-80
2021/04/19 04:40:25;;;;;;;22.50;15.10;;;;;;;7.65;100.00;97690.84;5073093;28;20284;-79
2021/04/19 04:42:56;;;;;;;26.03;17.53;;;;;;;7.69;100.00;97677.47;5074318;28;20228;-80
2021/04/19 04:45:23;;;;;;;26.77;17.33;;;;;;;7.82;100.00;97678.28;5074339;28;20196;-80
2021/04/19 04:47:57;;;;;;;20.30;16.63;;;;;;;7.84;100.00;97679.00;5074330;28;20201;-80
2021/04/19 04:50:30;;;;;;;16.33;13.73;;;;;;;7.88;100.00;97684.88;5074389;28;20185;-80
2021/04/19 04:53:03;;;;;;;29.57;21.47;;;;;;;7.77;100.00;97688.25;5074075;28;20200;-80
2021/04/19 04:55:32;;;;;;;21.83;17.27;;;;;;;7.65;100.00;97683.84;5073714;28;20696;-79
2021/04/19 04:58:00;;;;;;;17.53;14.43;;;;;;;7.66;100.00;97684.69;5073845;28;20194;-80
2021/04/19 05:00:28;;;;;;;17.17;12.73;;;;;;;7.65;100.00;97680.38;5074219;28;20579;-80
2021/04/19 05:02:56;;;;;;;15.73;11.57;;;;;;;7.78;100.00;97682.06;5073997;28;20280;-80
2021/04/19 05:05:24;;;;;;;13.37;11.83;;;;;;;7.86;100.00;97686.75;5073874;28;20193;-80
2021/04/19 05:07:51;;;;;;;14.70;13.10;;;;;;;7.85;100.00;97687.69;5073757;28;20197;-80
2021/04/19 05:10:20;;;;;;;14.47;11.67;;;;;;;7.93;100.00;97682.78;5073546;28;20244;-80
2021/04/19 05:12:46;;;;;;;17.83;13.83;;;;;;;8.04;99.95;97685.47;5073643;28;20240;-80
2021/04/19 05:15:14;;;;;;;14.17;12.37;;;;;;;8.07;99.99;97687.03;5073775;28;20289;-80
2021/04/19 05:17:42;;;;;;;15.67;13.27;;;;;;;8.09;99.96;97685.16;5073443;28;20288;-80
2021/04/19 05:20:10;;;;;;;17.33;15.17;;;;;;;8.04;100.00;97695.13;5073374;28;20598;-80
2021/04/19 05:22:37;;;;;;;18.40;16.23;;;;;;;8.03;99.71;97701.28;5073473;28;20232;-80
2021/04/19 05:25:05;;;;;;;25.13;16.93;;;;;;;7.95;99.63;97682.66;5073460;28;20201;-80
2021/04/19 05:27:33;;;;;;;30.63;22.33;;;;;;;7.86;99.42;97682.38;5073105;28;20284;-80
2021/04/19 05:30:01;;;;;;;31.97;22.40;;;;;;;7.94;98.96;97665.28;5073439;28;20248;-80
2021/04/19 05:32:28;;;;;;;30.83;22.33;;;;;;;7.91;98.63;97660.28;5073217;28;20233;-81
2021/04/19 05:34:56;;;;;;;24.93;19.00;;;;;;;7.95;98.19;97654.69;5073743;28;20232;-80
2021/04/19 05:37:24;;;;;;;20.50;16.37;;;;;;;8.02;97.87;97642.00;5072856;28;20288;-80
2021/04/19 05:39:52;;;;;;;18.93;14.63;;;;;;;8.05;97.86;97631.31;5073128;28;20260;-80
2021/04/19 05:42:19;;;;;;;16.60;12.90;;;;;;;8.09;97.94;97636.22;5072992;28;20299;-80
2021/04/19 05:44:48;;;;;;;16.33;12.57;;;;;;;8.23;97.97;97645.72;5073414;28;20227;-80
2021/04/19 05:47:15;;;;;;;12.87;10.97;;;;;;;8.31;98.12;97642.53;5072468;28;20551;-80
2021/04/19 05:49:42;;;;;;;13.87;11.73;;;;;;;8.36;98.40;97655.31;5073032;28;20289;-80
2021/04/19 05:52:11;;;;;;;14.23;11.60;;;;;;;8.39;98.76;97663.00;5073026;28;20637;-80
2021/04/19 05:54:40;;;;;;;16.17;14.33;;;;;;;8.55;98.96;97659.13;5073012;28;20280;-81
2021/04/19 05:57:12;;;;;;;16.63;13.33;;;;;;;8.59;99.68;97665.00;5072751;28;20247;-80
2021/04/19 05:59:45;;;;;;;46.80;37.83;;;;;;;8.61;100.00;97676.19;5073066;28;20205;-79
2021/04/19 06:02:17;;;;;;;20.93;17.70;;;;;;;8.58;100.00;97685.09;5073122;28;20211;-80
2021/04/19 06:04:50;;;;;;;18.37;14.40;;;;;;;8.60;100.00;97687.63;5072623;28;20720;-80
2021/04/19 06:07:21;;;;;;;16.53;13.10;;;;;;;8.45;100.00;97692.22;5072592;28;20271;-80
2021/04/19 06:09:54;;;;;;;13.07;11.70;;;;;;;8.42;100.00;97687.19;5072945;28;20224;-80
2021/04/19 06:12:25;;;;;;;14.77;13.27;;;;;;;8.44;100.00;97687.06;5072512;28;20292;-80
2021/04/19 06:14:53;;;;;;;15.70;12.70;;;;;;;8.48;100.00;97681.47;5072617;28;20193;-81
2021/04/19 06:17:23;;;;;;;13.83;11.90;;;;;;;8.52;100.00;97690.81;5072145;28;20666;-80
2021/04/19 06:19:51;;;;;;;14.70;12.27;;;;;;;8.48;100.00;97688.50;5072144;28;20686;-79
2021/04/19 06:22:19;;;;;;;13.90;12.43;;;;;;;8.41;100.00;97680.25;5072599;28;20215;-80
2021/04/19 06:24:47;;;;;;;16.53;13.10;;;;;;;8.55;100.00;97693.19;5072322;28;20575;-80
2021/04/19 06:27:18;;;;;;;12.87;11.17;;;;;;;8.47;100.00;97694.72;5072184;28;20193;-80
2021/04/19 06:29:45;;;;;;;12.17;10.77;;;;;;;8.39;100.00;97694.44;5072376;28;20193;-79
2021/04/19 06:32:14;;;;;;;12.90;11.33;;;;;;;8.35;100.00;97688.53;5072098;28;20298;-79
2021/04/19 06:34:42;;;;;;;16.87;12.13;;;;;;;8.21;100.00;97679.06;5072170;28;20239;-80
2021/04/19 06:37:09;;;;;;;12.63;10.60;;;;;;;8.16;100.00;97680.31;5072079;28;20205;-80
2021/04/19 06:39:36;;;;;;;11.17;10.07;;;;;;;7.95;100.00;97677.44;5072167;28;20271;-80
2021/04/19 06:42:03;;;;;;;12.60;11.17;;;;;;;7.86;100.00;97677.13;5070578;28;20193;-79
2021/04/19 06:44:31;;;;;;;14.50;11.33;;;;;;;7.86;100.00;97679.75;5070896;28;20681;-82
2021/04/19 06:46:59;;;;;;;17.03;11.57;;;;;;;7.91;100.00;97660.28;5071829;28;20201;-79
2021/04/19 06:49:26;;;;;;;17.50;12.47;;;;;;;7.96;100.00;97650.28;5072170;28;20197;-80
2021/04/19 06:51:57;;;;;;;13.27;9.90;;;;;;;7.91;100.00;97634.09;5071641;28;20300;-79
2021/04/19 06:54:24;;;;;;;15.70;11.53;;;;;;;7.97;100.00;97633.66;5071431;28;20182;-80
2021/04/19 06:56:51;;;;;;;13.07;10.47;;;;;;;8.13;100.00;97630.78;5071830;28;20193;-80
2021/04/19 06:59:20;;;;;;;12.77;11.07;;;;;;;8.23;100.00;97626.53;5071857;28;20225;-80
2021/04/19 07:01:51;;;;;;;13.40;10.00;;;;;;;8.13;100.00;97633.38;5071875;28;20209;-80
2021/04/19 07:04:21;;;;;;;16.20;11.40;;;;;;;8.20;100.00;97640.69;5071894;28;20268;-79
2021/04/19 07:06:49;;;;;;;13.13;10.97;;;;;;;8.13;100.00;97628.97;5071726;28;20201;-79
2021/04/19 07:09:24;;;;;;;14.80;11.37;;;;;;;8.16;100.00;97630.56;5071815;28;20673;-79
2021/04/19 07:11:54;;;;;;;15.97;12.20;;;;;;;8.20;100.00;97630.22;5071900;28;20546;-79
2021/04/19 07:14:22;;;;;;;13.43;11.10;;;;;;;8.21;100.00;97624.06;5071616;28;20280;-79
2021/04/19 07:16:50;;;;;;;13.03;11.63;;;;;;;8.32;100.00;97634.59;5071452;28;20294;-79
2021/04/19 07:19:17;;;;;;;15.40;11.87;;;;;;;8.30;100.00;97627.78;5071728;28;20260;-79
2021/04/19 07:21:44;;;;;;;17.23;13.30;;;;;;;8.27;100.00;97623.59;5071681;28;20197;-80
2021/04/19 07:24:11;;;;;;;13.13;11.67;;;;;;;8.12;100.00;97626.50;5071610;28;20692;-79
2021/04/19 07:26:42;;;;;;;17.77;12.80;;;;;;;8.10;100.00;97623.97;5071404;28;20199;-79
2021/04/19 07:29:09;;;;;;;15.30;12.63;;;;;;;8.14;100.00;97622.81;5071884;28;20550;-80
2021/04/19 07:31:47;;;;;;;14.53;11.83;;;;;;;8.09;100.00;97609.22;5071869;28;20229;-80
2021/04/19 07:34:21;;;;;;;14.83;12.87;;;;;;;8.19;100.00;97598.91;5071639;28;20243;-80
2021/04/19 07:36:51;;;;;;;15.00;12.27;;;;;;;8.12;100.00;97601.13;5071151;28;20193;-80
2021/04/19 07:39:19;;;;;;;16.60;12.53;;;;;;;8.09;100.00;97596.94;5071589;28;20820;-79
2021/04/19 07:41:49;;;;;;;15.07;11.63;;;;;;;8.02;99.70;97580.00;5071447;28;20199;-80
2021/04/19 07:44:39;;;;;;;17.97;14.87;;;;;;;8.15;98.94;97573.91;5071573;28;20242;-80
2021/04/19 07:47:32;;;;;;;19.03;14.37;;;;;;;8.16;98.51;97567.69;5071088;28;20272;-80
2021/04/19 07:50:02;;;;;;;19.13;15.00;;;;;;;8.16;98.29;97576.38;5071482;28;20645;-80
2021/04/19 07:52:30;;;;;;;26.13;18.40;;;;;;;8.24;97.82;97588.91;5071242;28;20216;-80
2021/04/19 07:55:12;;;;;;;21.50;16.13;;;;;;;8.41;97.29;97582.47;5071139;28;20205;-80
2021/04/19 07:57:40;;;;;;;35.20;22.93;;;;;;;8.33;97.49;97581.22;5071301;28;20652;-80
2021/04/19 08:00:10;;;;;;;22.87;17.83;;;;;;;8.37;97.95;97594.09;5071290;28;20261;-79
2021/04/19 08:02:37;;;;;;;27.43;19.80;;;;;;;8.31;98.27;97590.16;5071291;28;20227;-80
2021/04/19 08:05:05;;;;;;;34.47;22.60;;;;;;;8.20;98.47;97609.25;5071128;28;20208;-80
2021/04/19 08:07:33;;;;;;;23.57;18.43;;;;;;;8.20;98.41;97601.41;5074827;28;20212;-80
2021/04/19 08:10:02;;;;;;;21.10;17.53;;;;;;;8.27;98.20;97602.63;5074856;28;20665;-80
2021/04/19 08:12:37;;;;;;;22.50;18.83;;;;;;;8.19;98.39;97591.88;5074675;28;20197;-80
2021/04/19 08:15:07;;;;;;;25.97;19.93;;;;;;;8.16;98.38;97602.56;5075053;28;20631;-80
2021/04/19 08:17:34;;;;;;;26.63;20.23;;;;;;;8.16;98.32;97592.09;5074702;28;20721;-79
2021/04/19 08:20:06;;;;;;;22.80;16.30;;;;;;;8.01;98.45;97580.97;5074521;28;20725;-80
2021/04/19 08:22:32;;;;;;;27.40;20.67;;;;;;;8.01;98.30;97583.59;5074588;28;20189;-80
2021/04/19 08:25:16;;;;;;;35.77;26.17;;;;;;;8.12;98.09;97577.56;5074464;28;20250;-79
2021/04/19 08:27:45;;;;;;;34.50;22.00;;;;;;;8.15;98.18;97574.72;5074944;28;20189;-80
2021/04/19 08:30:15;;;;;;;36.60;22.77;;;;;;;8.22;98.26;97580.34;5074797;28;20271;-80
2021/04/19 08:32:45;;;;;;;28.83;21.33;;;;;;;8.15;98.63;97564.25;5074705;28;20268;-79
2021/04/19 08:35:13;;;;;;;20.83;17.70;;;;;;;8.20;98.64;97575.22;5074772;28;20272;-80
2021/04/19 08:37:41;;;;;;;21.23;17.73;;;;;;;8.21;98.86;97576.03;5074231;28;20247;-80
2021/04/19 08:40:10;;;;;;;26.83;21.80;;;;;;;8.34;98.90;97575.03;5074366;28;20286;-80
2021/04/19 08:42:38;;;;;;;21.83;19.50;;;;;;;8.41;98.95;97578.06;5074312;28;20196;-80
2021/04/19 08:45:06;;;;;;;24.70;20.70;;;;;;;8.32;99.34;97582.19;5074335;28;20197;-80
2021/04/19 08:47:35;;;;;;;39.00;26.53;;;;;;;8.36;99.40;97585.41;5073940;28;20197;-80
2021/04/19 08:50:04;;;;;;;21.80;18.77;;;;;;;8.41;99.52;97588.56;5074114;28;20201;-80
2021/04/19 08:52:31;;;;;;;23.40;20.30;;;;;;;8.37;99.85;97575.78;5074075;28;20284;-80
2021/04/19 08:54:58;;;;;;;21.20;17.90;;;;;;;8.45;99.90;97576.06;5073812;28;20687;-80
2021/04/19 08:57:25;;;;;;;23.20;20.80;;;;;;;8.38;100.00;97572.22;5074257;28;20197;-81
2021/04/19 08:59:53;;;;;;;23.17;18.90;;;;;;;8.48;99.59;97574.06;5073929;28;20225;-81
2021/04/19 09:02:22;;;;;;;19.60;14.70;;;;;;;8.38;99.52;97565.19;5074183;28;20243;-82
2021/04/19 09:05:06;;;;;;;20.13;15.87;;;;;;;8.27;99.22;97542.38;5074064;28;20640;-82
2021/04/19 09:07:34;;;;;;;56.77;35.17;;;;;;;8.19;99.36;97542.13;5073698;28;20710;-81
2021/04/19 09:10:01;;;;;;;26.23;19.90;;;;;;;8.26;98.93;97538.09;5073762;28;20234;-81
2021/04/19 09:12:30;;;;;;;19.53;15.63;;;;;;;8.29;98.48;97532.66;5073753;28;20640;-81
2021/04/19 09:15:29;;;;;;;31.07;22.80;;;;;;;8.18;98.73;97522.13;5073904;28;20197;-81
2021/04/19 09:18:03;;;;;;;46.37;33.83;;;;;;;8.27;98.56;97524.06;5057622;28;20197;-81
2021/04/19 09:20:34;;;;;;;41.37;30.47;;;;;;;8.25;98.55;97527.75;5073572;28;20241;-82
2021/04/19 09:23:18;;;;;;;26.30;18.30;;;;;;;8.34;98.15;97513.94;5073583;28;20193;-83
2021/04/19 09:25:45;;;;;;;41.87;29.63;;;;;;;8.48;97.52;97507.72;5073879;28;20197;-84
2021/04/19 09:28:12;;;;;;;26.20;21.77;;;;;;;8.52;97.12;97503.91;5073510;28;20284;-84
2021/04/19 09:30:46;;;;;;;24.17;18.67;;;;;;;8.75;96.38;97496.94;5073563;28;20192;-84
2021/04/19 09:33:23;;;;;;;19.60;16.57;;;;;;;8.75;96.09;97486.44;5073640;28;20185;-83
2021/04/19 09:35:52;;;;;;;15.90;14.20;;;;;;;8.77;95.84;97500.28;5073689;28;20208;-84
2021/04/19 09:38:51;;;;;;;15.77;14.03;;;;;;;8.58;96.00;97499.03;5073228;28;20201;-83
2021/04/19 09:41:21;;;;;;;47.47;29.90;;;;;;;8.46;95.86;97500.00;5073335;28;20193;-83
2021/04/19 09:43:55;;;;;;;18.53;15.97;;;;;;;8.47;95.49;97503.44;5073304;28;20209;-84
2021/04/19 09:46:32;;;;;;;22.63;14.97;;;;;;;8.29;95.41;97485.50;5073474;28;20188;-84
2021/04/19 09:49:02;;;;;;;32.20;22.87;;;;;;;8.28;95.27;97491.69;5073343;28;20632;-84
2021/04/19 09:51:38;;;;;;;36.63;22.27;;;;;;;8.39;94.86;97490.91;5073366;28;20216;-83
2021/04/19 09:54:09;;;;;;;18.33;15.37;;;;;;;8.49;94.51;97491.91;5073611;28;20547;-84
2021/04/19 09:56:39;;;;;;;19.47;14.53;;;;;;;8.34;94.46;97495.63;5073168;28;20181;-83
2021/04/19 09:59:07;;;;;;;18.33;14.97;;;;;;;8.21;94.31;97498.34;5072657;28;20291;-83
2021/04/19 10:01:36;;;;;;;17.20;12.63;;;;;;;8.14;94.10;97486.66;5072810;28;20239;-82
2021/04/19 10:04:04;;;;;;;17.53;14.97;;;;;;;8.11;93.73;97481.63;5073034;28;20683;-83
2021/04/19 10:06:37;;;;;;;18.73;16.63;;;;;;;8.08;93.37;97480.06;5073115;28;20224;-83
2021/04/19 10:09:09;;;;;;;21.17;16.23;;;;;;;8.00;93.07;97481.56;5072565;28;20281;-83
2021/04/19 10:11:43;;;;;;;15.33;13.17;;;;;;;8.06;92.66;97487.19;5072641;28;20642;-83
2021/04/19 10:14:13;;;;;;;17.73;14.00;;;;;;;8.09;92.30;97484.34;5072857;28;20225;-83
2021/04/19 10:16:42;;;;;;;21.13;16.67;;;;;;;8.15;92.03;97493.53;5072651;28;20699;-82
2021/04/19 10:19:09;;;;;;;15.17;13.50;;;;;;;8.32;91.75;97498.38;5072267;28;20601;-84
2021/04/19 10:21:38;;;;;;;13.93;12.20;;;;;;;8.36;91.69;97498.13;5072384;28;20228;-83
2021/04/19 10:24:16;;;;;;;14.73;12.07;;;;;;;8.29;91.70;97498.59;5072277;28;20232;-83
2021/04/19 10:26:43;;;;;;;16.20;13.23;;;;;;;8.33;91.61;97505.25;5072700;28;20275;-83
2021/04/19 10:29:17;;;;;;;15.73;13.17;;;;;;;8.32;91.67;97492.28;5071725;28;20201;-83
2021/04/19 10:31:49;;;;;;;17.40;13.30;;;;;;;8.51;91.53;97500.47;5072044;28;20196;-82
2021/04/19 10:34:17;;;;;;;16.60;12.10;;;;;;;8.62;91.42;97497.03;5072416;28;20236;-83
2021/04/19 10:36:49;;;;;;;17.37;15.30;;;;;;;8.60;91.44;97493.72;5072159;28;20283;-82
2021/04/19 10:39:20;;;;;;;16.40;13.60;;;;;;;8.55;91.59;97493.19;5072191;28;20255;-82
2021/04/19 10:41:48;;;;;;;13.00;11.63;;;;;;;8.48;91.72;97487.59;5071893;28;20189;-82
2021/04/19 10:44:17;;;;;;;14.50;13.00;;;;;;;8.49;91.75;97496.31;5072130;28;20189;-82
2021/04/19 10:46:45;;;;;;;14.40;13.00;;;;;;;8.47;91.84;97493.78;5071945;28;20201;-82
2021/04/19 10:49:26;;;;;;;14.60;13.03;;;;;;;8.55;91.71;97493.19;5072445;28;20318;-82
2021/04/19 10:51:55;;;;;;;12.97;11.67;;;;;;;8.45;91.79;97495.72;5071781;28;20271;-82
2021/04/19 10:54:28;;;;;;;15.33;12.90;;;;;;;8.48;91.72;97498.06;5072034;28;20287;-82
2021/04/19 10:56:56;;;;;;;15.30;13.00;;;;;;;8.50;91.56;97496.19;5072228;28;20598;-82
2021/04/19 10:59:24;;;;;;;13.83;11.93;;;;;;;8.36;91.58;97487.66;5071954;28;20269;-82
2021/04/19 11:01:58;;;;;;;14.87;12.00;;;;;;;8.44;91.30;97495.81;5071835;28;20234;-81
2021/04/19 11:04:26;;;;;;;14.10;10.80;;;;;;;8.40;91.28;97494.38;5071964;28;20188;-81
2021/04/19 11:06:52;;;;;;;15.80;11.77;;;;;;;8.53;91.12;97497.75;5071435;28;20204;-81
2021/04/19 11:09:26;;;;;;;12.57;10.60;;;;;;;8.52;91.06;97504.78;5072275;28;20247;-82
2021/04/19 11:11:56;;;;;;;11.10;9.13;;;;;;;8.46;91.09;97509.63;5071722;28;20193;-81
2021/04/19 11:14:24;;;;;;;11.67;10.23;;;;;;;8.51;90.99;97499.63;5071939;28;20232;-82
2021/04/19 11:16:56;;;;;;;13.53;11.47;;;;;;;8.57;90.77;97486.06;5071734;28;20233;-81
2021/04/19 11:19:40;;;;;;;42.63;29.67;;;;;;;8.68;90.45;97462.50;5071769;28;20217;-82
2021/04/19 11:22:25;;;;;;;21.90;17.27;;;;;;;8.74;90.25;97451.53;5071358;28;20201;-82
2021/04/19 11:24:53;;;;;;;17.30;15.00;;;;;;;8.66;90.27;97442.59;5071863;28;20181;-82
2021/04/19 11:27:25;;;;;;;15.83;13.77;;;;;;;8.78;90.01;97452.97;5071878;28;20618;-80
2021/04/19 11:29:53;;;;;;;14.17;12.33;;;;;;;8.92;89.78;97444.03;5071999;28;20197;-82
2021/04/19 11:32:35;;;;;;;13.87;10.37;;;;;;;9.09;89.56;97458.47;5071826;28;20279;-82
2021/04/19 11:35:03;;;;;;;12.40;10.87;;;;;;;9.24;89.52;97472.16;5071473;28;20228;-82
2021/04/19 11:37:35;;;;;;;12.57;10.63;;;;;;;9.36;89.57;97473.81;5071381;28;20239;-82